createdAt,value
2023-01-17T00:00:00.899Z,15.80
2023-01-17T00:02:32.392Z,14.13
2023-01-17T00:05:19.866Z,15.57
2023-01-17T00:08:07.217Z,14.32
2023-01-17T00:10:35.559Z,14.23
2023-01-17T00:13:05.301Z,17.83
2023-01-17T00:15:33.896Z,18.17
2023-01-17T00:18:02.439Z,17.75
2023-01-17T00:20:50.969Z,21.10
2023-01-17T00:23:48.097Z,22.15
2023-01-17T00:26:19.204Z,20.40
2023-01-17T00:28:48.166Z,19.75
2023-01-17T00:31:17.965Z,20.73
2023-01-17T00:33:47.215Z,20.67
2023-01-17T00:36:15.793Z,19.02
2023-01-17T00:38:44.245Z,18.63
2023-01-17T00:41:15.219Z,15.70
2023-01-17T00:44:01.880Z,17.85
2023-01-17T00:46:48.562Z,17.48
2023-01-17T00:49:34.860Z,17.20
2023-01-17T00:52:21.689Z,17.30
2023-01-17T00:55:08.511Z,20.65
2023-01-17T00:57:55.354Z,23.27
2023-01-17T01:00:42.243Z,23.17
2023-01-17T01:03:30.841Z,21.92
2023-01-17T01:06:19.228Z,21.73
2023-01-17T01:09:06.136Z,21.15
2023-01-17T01:11:53.264Z,23.05
2023-01-17T01:14:39.742Z,25.27
2023-01-17T01:17:26.815Z,25.08
2023-01-17T01:20:13.942Z,24.05
2023-01-17T01:23:00.796Z,25.00
2023-01-17T01:25:47.772Z,25.35
2023-01-17T01:28:35.390Z,23.88
2023-01-17T01:31:23.557Z,20.42
2023-01-17T01:33:53.829Z,23.17
2023-01-17T01:36:22.134Z,21.48
2023-01-17T01:38:51.673Z,21.50
2023-01-17T01:41:20.262Z,21.35
2023-01-17T01:43:50.432Z,21.17
2023-01-17T01:46:23.401Z,22.90
2023-01-17T01:48:57.035Z,19.55
2023-01-17T01:54:08.315Z,18.00
2023-01-17T01:56:37.138Z,18.48
2023-01-17T01:59:08.961Z,17.05
2023-01-17T02:01:37.874Z,17.80
2023-01-17T02:04:11.145Z,19.67
2023-01-17T02:07:11.710Z,17.67
2023-01-17T02:09:40.344Z,17.33
2023-01-17T02:12:09.657Z,17.10
2023-01-17T02:14:38.419Z,16.63
2023-01-17T02:17:15.332Z,19.40
2023-01-17T02:20:02.871Z,19.10
2023-01-17T02:22:31.416Z,18.83
2023-01-17T02:25:08.625Z,18.63
2023-01-17T02:27:55.672Z,17.95
2023-01-17T02:30:37.531Z,16.02
2023-01-17T02:33:37.555Z,17.65
2023-01-17T02:36:25.695Z,17.40
2023-01-17T02:39:22.019Z,17.20
2023-01-17T02:41:57.246Z,16.40
2023-01-17T02:44:25.867Z,16.20
2023-01-17T02:46:57.191Z,17.88
2023-01-17T02:49:31.043Z,18.50
2023-01-17T02:52:34.503Z,17.17
2023-01-17T02:55:23.961Z,16.52
2023-01-17T02:58:10.331Z,17.63
2023-01-17T03:01:06.232Z,15.40
2023-01-17T03:03:52.414Z,14.32
2023-01-17T03:06:40.397Z,14.25
2023-01-17T03:09:09.772Z,15.10
2023-01-17T03:11:38.511Z,13.95
2023-01-17T03:14:07.084Z,13.98
2023-01-17T03:16:35.725Z,14.70
2023-01-17T03:19:04.836Z,14.70
2023-01-17T03:21:33.524Z,13.98
2023-01-17T03:24:02.139Z,15.50
2023-01-17T03:26:31.038Z,14.23
2023-01-17T03:28:59.691Z,14.85
2023-01-17T03:31:28.413Z,14.23
2023-01-17T03:33:56.627Z,13.77
2023-01-17T03:36:25.196Z,13.90
2023-01-17T03:38:54.145Z,13.48
2023-01-17T03:41:22.760Z,13.38
2023-01-17T03:43:51.412Z,12.00
2023-01-17T03:46:23.189Z,12.07
2023-01-17T03:48:51.912Z,13.15
2023-01-17T03:51:20.414Z,12.57
2023-01-17T03:53:49.228Z,12.70
2023-01-17T03:56:17.860Z,13.75
2023-01-17T03:58:46.126Z,12.52
2023-01-17T04:01:14.942Z,13.57
2023-01-17T04:03:43.706Z,12.68
2023-01-17T04:06:12.494Z,12.20
2023-01-17T04:08:41.245Z,13.25
2023-01-17T04:11:10.321Z,13.50
2023-01-17T04:13:39.149Z,12.35
2023-01-17T04:16:08.032Z,13.50
2023-01-17T04:18:36.311Z,14.05
2023-01-17T04:21:04.867Z,14.35
2023-01-17T04:23:33.178Z,14.38
2023-01-17T04:26:01.418Z,14.77
2023-01-17T04:28:30.011Z,14.00
2023-01-17T04:31:02.435Z,13.68
2023-01-17T04:33:31.011Z,13.68
2023-01-17T04:35:59.613Z,13.38
2023-01-17T04:38:28.321Z,13.27
2023-01-17T04:40:56.846Z,13.80
2023-01-17T04:43:25.375Z,14.93
2023-01-17T04:45:57.782Z,15.43
2023-01-17T04:48:27.451Z,15.07
2023-01-17T04:51:06.717Z,14.80
2023-01-17T04:53:35.384Z,14.18
2023-01-17T04:56:04.298Z,14.50
2023-01-17T04:58:34.584Z,14.38
2023-01-17T05:01:07.645Z,14.18
2023-01-17T05:03:37.184Z,16.42
2023-01-17T05:06:06.419Z,16.70
2023-01-17T05:08:35.087Z,17.45
2023-01-17T05:11:03.362Z,15.38
2023-01-17T05:13:32.018Z,16.98
2023-01-17T05:16:00.691Z,15.82
2023-01-17T05:18:29.033Z,14.48
2023-01-17T05:21:04.076Z,16.35
2023-01-17T05:23:33.845Z,16.48
2023-01-17T05:26:02.781Z,15.88
2023-01-17T05:28:31.382Z,16.67
2023-01-17T05:31:00.048Z,15.13
2023-01-17T05:33:28.589Z,17.23
2023-01-17T05:35:56.811Z,17.02
2023-01-17T05:38:25.678Z,17.40
2023-01-17T05:40:54.532Z,16.15
2023-01-17T05:43:24.294Z,16.08
2023-01-17T05:45:52.705Z,15.13
2023-01-17T05:48:22.013Z,14.63
2023-01-17T05:50:55.057Z,13.40
2023-01-17T05:53:23.806Z,13.63
2023-01-17T05:55:52.480Z,13.63
2023-01-17T05:58:22.793Z,12.95
2023-01-17T06:00:51.580Z,12.07
2023-01-17T06:03:20.611Z,12.35
2023-01-17T06:05:49.891Z,11.07
2023-01-17T06:08:18.648Z,12.50
2023-01-17T06:10:47.250Z,11.82
2023-01-17T06:13:18.103Z,12.02
2023-01-17T06:15:46.805Z,12.05
2023-01-17T06:18:17.668Z,11.70
2023-01-17T06:20:46.544Z,12.43
2023-01-17T06:23:16.115Z,12.02
2023-01-17T06:25:48.960Z,12.45
2023-01-17T06:28:22.131Z,12.38
2023-01-17T06:30:51.287Z,12.65
2023-01-17T06:33:20.061Z,13.52
2023-01-17T06:35:52.481Z,12.73
2023-01-17T06:38:20.833Z,13.77
2023-01-17T06:40:49.574Z,13.63
2023-01-17T06:43:17.666Z,12.63
2023-01-17T06:45:46.446Z,13.32
2023-01-17T06:48:15.227Z,13.65
2023-01-17T06:50:43.996Z,12.63
2023-01-17T06:53:12.719Z,12.70
2023-01-17T06:55:41.561Z,11.93
2023-01-17T06:58:11.249Z,12.55
2023-01-17T07:00:41.112Z,12.23
2023-01-17T07:03:21.536Z,11.40
2023-01-17T07:05:50.298Z,11.75
2023-01-17T07:08:19.946Z,11.38
2023-01-17T07:10:49.749Z,11.75
2023-01-17T07:13:18.118Z,13.60
2023-01-17T07:15:46.795Z,12.75
2023-01-17T07:18:16.051Z,13.35
2023-01-17T07:20:45.343Z,12.82
2023-01-17T07:23:14.132Z,13.35
2023-01-17T07:25:42.927Z,12.63
2023-01-17T07:28:11.606Z,13.57
2023-01-17T07:30:40.299Z,12.40
2023-01-17T07:33:09.500Z,12.18
2023-01-17T07:35:38.739Z,11.82
2023-01-17T07:38:12.522Z,12.38
2023-01-17T07:40:42.402Z,12.27
2023-01-17T07:43:18.175Z,11.48
2023-01-17T07:45:51.967Z,11.65
2023-01-17T07:48:22.339Z,11.65
2023-01-17T07:50:55.325Z,12.85
2023-01-17T07:53:28.098Z,11.90
2023-01-17T07:55:57.269Z,12.30
2023-01-17T07:58:25.919Z,12.35
2023-01-17T08:01:06.106Z,10.90
2023-01-17T08:03:37.938Z,10.95
2023-01-17T08:06:07.104Z,11.73
2023-01-17T08:08:35.687Z,10.85
2023-01-17T08:11:04.302Z,9.05
2023-01-17T08:13:32.724Z,9.52
2023-01-17T08:16:03.343Z,9.23
2023-01-17T08:18:32.192Z,8.75
2023-01-17T08:21:00.892Z,10.63
2023-01-17T08:23:29.205Z,9.48
2023-01-17T08:26:02.461Z,9.52
2023-01-17T08:28:31.198Z,9.65
2023-01-17T08:30:59.866Z,9.65
2023-01-17T08:33:28.727Z,9.82
2023-01-17T08:35:57.603Z,9.70
2023-01-17T08:38:26.837Z,9.90
2023-01-17T08:40:56.042Z,9.55
2023-01-17T08:43:24.727Z,9.75
2023-01-17T08:45:57.569Z,10.50
2023-01-17T08:48:26.322Z,10.75
2023-01-17T08:50:55.115Z,9.98
2023-01-17T08:53:24.756Z,10.98
2023-01-17T08:55:59.846Z,10.55
2023-01-17T08:58:30.605Z,10.52
2023-01-17T09:01:06.944Z,10.70
2023-01-17T09:03:40.712Z,9.30
2023-01-17T09:06:11.614Z,9.70
2023-01-17T09:08:40.618Z,10.23
2023-01-17T09:11:11.130Z,10.27
2023-01-17T09:13:40.469Z,10.02
2023-01-17T09:16:09.438Z,9.50
2023-01-17T09:18:38.522Z,9.60
2023-01-17T09:21:15.708Z,9.20
2023-01-17T09:23:44.908Z,8.93
2023-01-17T09:26:26.595Z,8.77
2023-01-17T09:28:55.403Z,8.73
2023-01-17T09:31:25.108Z,9.82
2023-01-17T09:33:54.490Z,10.00
2023-01-17T09:36:23.599Z,10.23
2023-01-17T09:38:58.241Z,11.40
2023-01-17T09:41:34.090Z,13.02
2023-01-17T09:44:09.433Z,12.38
2023-01-17T09:46:44.605Z,11.85
2023-01-17T09:49:32.923Z,11.85
2023-01-17T09:52:01.898Z,11.38
2023-01-17T09:54:35.822Z,12.00
2023-01-17T09:57:22.119Z,11.70
2023-01-17T10:00:03.148Z,12.70
2023-01-17T10:03:27.918Z,11.30
2023-01-17T10:06:15.322Z,10.75
2023-01-17T10:08:49.300Z,10.38
2023-01-17T10:11:36.274Z,10.40
2023-01-17T10:14:25.722Z,9.68
2023-01-17T10:17:09.993Z,9.63
2023-01-17T10:20:00.799Z,10.38
2023-01-17T10:22:52.505Z,11.77
2023-01-17T10:25:43.844Z,10.40
2023-01-17T10:28:21.590Z,12.68
2023-01-17T10:30:56.354Z,10.85
2023-01-17T10:33:32.548Z,12.20
2023-01-17T10:36:16.779Z,11.30
2023-01-17T10:38:49.459Z,9.63
2023-01-17T10:41:18.014Z,10.80
2023-01-17T10:44:04.474Z,9.95
2023-01-17T10:47:10.805Z,11.88
2023-01-17T10:49:41.595Z,12.13
2023-01-17T10:52:31.458Z,12.50
2023-01-17T10:55:10.103Z,10.82
2023-01-17T10:57:44.457Z,10.38
2023-01-17T11:00:31.577Z,11.55
2023-01-17T11:03:00.224Z,10.55
2023-01-17T11:05:31.543Z,10.30
2023-01-17T11:08:08.297Z,11.45
2023-01-17T11:10:41.224Z,13.30
2023-01-17T11:13:31.281Z,12.80
2023-01-17T11:16:05.240Z,12.75
2023-01-17T11:18:37.257Z,13.75
2023-01-17T11:21:24.211Z,14.77
2023-01-17T11:23:57.847Z,14.32
2023-01-17T11:29:34.705Z,12.13
2023-01-17T11:32:23.150Z,12.10
2023-01-17T11:35:07.048Z,12.60
2023-01-17T11:40:18.754Z,11.73
2023-01-17T11:42:47.373Z,14.10
2023-01-17T11:45:33.977Z,12.60
2023-01-17T11:48:14.261Z,14.15
2023-01-17T11:51:05.463Z,13.13
2023-01-17T11:53:36.190Z,13.77
2023-01-17T11:56:12.518Z,13.50
2023-01-17T11:58:43.151Z,14.63
2023-01-17T12:01:39.074Z,14.05
2023-01-17T12:04:27.133Z,15.25
2023-01-17T12:07:32.088Z,15.43
2023-01-17T12:10:52.229Z,13.63
2023-01-17T12:13:44.862Z,14.27
2023-01-17T12:16:40.202Z,15.10
2023-01-17T12:19:26.831Z,16.33
2023-01-17T12:22:19.582Z,14.35
2023-01-17T12:24:48.138Z,15.02
2023-01-17T12:27:43.627Z,14.65
2023-01-17T12:30:35.393Z,14.35
2023-01-17T12:33:39.507Z,15.63
2023-01-17T12:36:18.952Z,13.85
2023-01-17T12:38:49.866Z,15.85
2023-01-17T12:41:29.074Z,15.00
2023-01-17T12:44:01.010Z,15.57
2023-01-17T12:46:39.853Z,16.65
2023-01-17T12:49:44.598Z,16.25
2023-01-17T12:52:15.564Z,16.85
2023-01-17T12:54:46.977Z,16.42
2023-01-17T12:57:49.628Z,17.50
2023-01-17T13:00:24.339Z,16.27
2023-01-17T13:03:11.632Z,16.05
2023-01-17T13:05:43.530Z,15.73
2023-01-17T13:08:31.658Z,14.88
2023-01-17T13:11:19.785Z,15.40
2023-01-17T13:13:52.070Z,15.90
2023-01-17T13:16:32.600Z,16.08
2023-01-17T13:19:08.799Z,13.65
2023-01-17T13:21:37.515Z,14.43
2023-01-17T13:24:18.839Z,12.88
2023-01-17T13:27:26.389Z,14.38
2023-01-17T13:30:06.793Z,14.73
2023-01-17T13:32:57.620Z,13.18
2023-01-17T13:35:44.239Z,13.43
2023-01-17T13:38:33.898Z,13.27
2023-01-17T13:41:05.532Z,13.02
2023-01-17T13:44:03.198Z,13.90
2023-01-17T13:46:32.380Z,14.45
2023-01-17T13:49:30.573Z,14.15
2023-01-17T13:52:12.231Z,14.45
2023-01-17T13:54:53.604Z,13.00
2023-01-17T13:57:29.998Z,13.60
2023-01-17T14:00:00.332Z,14.77
2023-01-17T14:02:34.548Z,15.32
2023-01-17T14:05:21.945Z,14.43
2023-01-17T14:08:00.715Z,13.35
2023-01-17T14:10:32.280Z,14.18
2023-01-17T14:13:01.415Z,14.65
2023-01-17T14:15:32.709Z,13.80
2023-01-17T14:18:02.956Z,14.25
2023-01-17T14:20:41.918Z,13.77
2023-01-17T14:23:27.416Z,13.77
2023-01-17T14:25:58.379Z,14.93
2023-01-17T14:28:31.055Z,13.68
2023-01-17T14:31:01.113Z,14.83
2023-01-17T14:33:37.580Z,14.18
2023-01-17T14:36:09.495Z,15.00
2023-01-17T14:38:44.618Z,14.15
2023-01-17T14:41:20.966Z,14.40
2023-01-17T14:43:50.430Z,14.73
2023-01-17T14:46:33.182Z,14.52
2023-01-17T14:49:03.938Z,14.32
2023-01-17T14:51:36.363Z,14.70
2023-01-17T14:54:15.129Z,14.07
2023-01-17T14:56:43.455Z,14.82
2023-01-17T14:59:22.837Z,14.48
2023-01-17T15:02:07.503Z,15.25
2023-01-17T15:04:40.570Z,14.35
2023-01-17T15:07:11.833Z,15.15
2023-01-17T15:09:40.590Z,13.40
2023-01-17T15:12:12.234Z,15.05
2023-01-17T15:14:43.580Z,15.32
2023-01-17T15:17:28.116Z,16.98
2023-01-17T15:19:59.446Z,14.75
2023-01-17T15:22:28.374Z,14.60
2023-01-17T15:24:57.729Z,16.80
2023-01-17T15:27:26.588Z,16.10
2023-01-17T15:29:55.638Z,14.82
2023-01-17T15:32:25.988Z,15.95
2023-01-17T15:34:55.263Z,14.85
2023-01-17T15:37:35.840Z,15.70
2023-01-17T15:40:19.974Z,16.02
2023-01-17T15:42:57.851Z,17.45
2023-01-17T15:45:34.060Z,16.00
2023-01-17T15:48:41.458Z,14.57
2023-01-17T15:51:11.899Z,14.63
2023-01-17T15:53:43.333Z,15.35
2023-01-17T15:56:34.845Z,15.18
2023-01-17T15:59:29.340Z,14.85
2023-01-17T16:02:00.324Z,14.55
2023-01-17T16:04:33.809Z,15.45
2023-01-17T16:07:23.344Z,15.07
2023-01-17T16:09:51.894Z,16.13
2023-01-17T16:12:20.571Z,14.98
2023-01-17T16:15:02.822Z,15.38
2023-01-17T16:17:37.905Z,16.48
2023-01-17T16:20:10.873Z,15.88
2023-01-17T16:22:39.469Z,14.45
2023-01-17T16:25:18.700Z,15.23
2023-01-17T16:27:47.053Z,14.85
2023-01-17T16:30:17.731Z,13.98
2023-01-17T16:32:50.744Z,15.07
2023-01-17T16:35:22.128Z,16.08
2023-01-17T16:37:55.401Z,16.23
2023-01-17T16:40:26.336Z,15.48
2023-01-17T16:42:56.796Z,19.48
2023-01-17T16:45:28.656Z,18.05
2023-01-17T16:47:57.505Z,17.92
2023-01-17T16:50:26.599Z,18.52
2023-01-17T16:52:57.566Z,18.90
2023-01-17T16:55:26.884Z,18.90
2023-01-17T16:57:59.607Z,17.98
2023-01-17T17:00:28.262Z,18.07
2023-01-17T17:02:57.597Z,19.73
2023-01-17T17:05:27.026Z,20.58
2023-01-17T17:07:56.305Z,20.55
2023-01-17T17:10:26.420Z,22.58
2023-01-17T17:12:55.626Z,20.92
2023-01-17T17:15:23.890Z,21.08
2023-01-17T17:17:52.805Z,19.73
2023-01-17T17:20:21.254Z,19.13
2023-01-17T17:22:53.210Z,21.13
2023-01-17T17:25:21.621Z,22.60
2023-01-17T17:27:49.994Z,21.98
2023-01-17T17:30:19.500Z,22.55
2023-01-17T17:32:48.910Z,22.88
2023-01-17T17:35:17.680Z,23.48
2023-01-17T17:37:46.277Z,24.75
2023-01-17T17:40:14.688Z,24.27
2023-01-17T17:42:43.889Z,24.35
2023-01-17T17:45:12.781Z,26.98
2023-01-17T17:47:41.059Z,25.23
2023-01-17T17:50:10.446Z,27.17
2023-01-17T17:52:39.448Z,28.30
2023-01-17T17:55:08.509Z,28.00
2023-01-17T17:57:37.124Z,28.83
2023-01-17T18:00:06.492Z,27.00
2023-01-17T18:02:34.903Z,26.25
2023-01-17T18:05:04.270Z,27.63
2023-01-17T18:07:33.870Z,27.60
2023-01-17T18:10:02.491Z,27.90
2023-01-17T18:12:31.215Z,27.98
2023-01-17T18:14:59.868Z,27.60
2023-01-17T18:17:28.523Z,28.65
2023-01-17T18:19:56.529Z,29.42
2023-01-17T18:22:25.230Z,28.40
2023-01-17T18:24:53.875Z,26.63
2023-01-17T18:27:22.144Z,25.35
2023-01-17T18:29:50.721Z,25.23
2023-01-17T18:32:19.865Z,28.17
2023-01-17T18:34:48.970Z,29.60
2023-01-17T18:37:17.592Z,27.75
2023-01-17T18:39:45.746Z,28.98
2023-01-17T18:42:14.485Z,26.80
2023-01-17T18:44:42.680Z,28.50
2023-01-17T18:47:12.239Z,26.83
2023-01-17T18:49:41.017Z,28.27
2023-01-17T18:52:10.718Z,26.90
2023-01-17T18:54:39.353Z,27.33
2023-01-17T18:57:07.857Z,28.35
2023-01-17T18:59:36.507Z,28.15
2023-01-17T19:02:05.085Z,27.77
2023-01-17T19:04:35.371Z,26.73
2023-01-17T19:07:04.517Z,27.33
2023-01-17T19:09:33.498Z,27.58
2023-01-17T19:12:02.196Z,27.00
2023-01-17T19:14:30.882Z,26.33
2023-01-17T19:16:59.436Z,26.92
2023-01-17T19:19:28.098Z,27.80
2023-01-17T19:21:56.417Z,28.17
2023-01-17T19:24:26.135Z,27.75
2023-01-17T19:26:54.746Z,30.25
2023-01-17T19:29:23.975Z,29.92
2023-01-17T19:31:52.577Z,28.58
2023-01-17T19:34:21.638Z,28.30
2023-01-17T19:36:49.847Z,28.92
2023-01-17T19:39:18.480Z,29.70
2023-01-17T19:41:47.533Z,28.52
2023-01-17T19:44:16.442Z,28.92
2023-01-17T19:46:46.577Z,27.77
2023-01-17T19:49:17.618Z,28.40
2023-01-17T19:51:45.995Z,28.13
2023-01-17T19:54:16.435Z,28.95
2023-01-17T19:56:45.102Z,27.70
2023-01-17T19:59:15.159Z,25.23
2023-01-17T20:01:43.549Z,26.10
2023-01-17T20:04:14.078Z,28.73
2023-01-17T20:06:43.355Z,27.58
2023-01-17T20:09:11.773Z,25.92
2023-01-17T20:11:43.180Z,26.08
2023-01-17T20:14:15.409Z,26.13
2023-01-17T20:16:46.148Z,27.20
2023-01-17T20:19:14.945Z,26.85
2023-01-17T20:21:43.857Z,27.15
2023-01-17T20:24:14.526Z,27.48
2023-01-17T20:26:43.279Z,27.63
2023-01-17T20:29:17.297Z,24.52
2023-01-17T20:31:46.903Z,24.10
2023-01-17T20:34:19.668Z,23.88
2023-01-17T20:36:48.476Z,21.35
2023-01-17T20:39:20.959Z,21.02
2023-01-17T20:41:51.349Z,18.48
2023-01-17T20:44:21.067Z,18.92
2023-01-17T20:46:49.684Z,18.90
2023-01-17T20:49:20.460Z,17.45
2023-01-17T20:51:49.579Z,18.88
2023-01-17T20:54:20.275Z,17.75
2023-01-17T20:56:49.479Z,18.52
2023-01-17T20:59:20.073Z,17.67
2023-01-17T21:01:49.245Z,16.77
2023-01-17T21:04:19.251Z,15.57
2023-01-17T21:06:48.823Z,13.73
2023-01-17T21:09:18.487Z,13.93
2023-01-17T21:11:47.164Z,13.48
2023-01-17T21:14:15.738Z,12.13
2023-01-17T21:16:44.354Z,12.40
2023-01-17T21:19:16.207Z,13.93
2023-01-17T21:21:44.294Z,12.95
2023-01-17T21:24:17.629Z,12.32
2023-01-17T21:26:47.328Z,12.93
2023-01-17T21:29:17.239Z,13.70
2023-01-17T21:31:46.523Z,14.40
2023-01-17T21:34:15.171Z,15.95
2023-01-17T21:36:44.150Z,15.52
2023-01-17T21:39:21.278Z,15.40
2023-01-17T21:41:51.603Z,16.33
2023-01-17T21:44:22.515Z,14.70
2023-01-17T21:46:55.984Z,14.98
2023-01-17T21:49:25.123Z,14.75
2023-01-17T21:51:56.617Z,14.40
2023-01-17T21:54:45.661Z,16.10
2023-01-17T21:57:51.502Z,16.10
2023-01-17T22:00:20.476Z,15.98
2023-01-17T22:02:49.923Z,16.17
2023-01-17T22:05:19.857Z,16.30
2023-01-17T22:08:06.981Z,16.55
2023-01-17T22:10:45.689Z,16.73
2023-01-17T22:13:18.299Z,15.90
2023-01-17T22:15:47.161Z,16.52
2023-01-17T22:18:16.563Z,16.08
2023-01-17T22:20:44.859Z,17.20
2023-01-17T22:23:13.437Z,16.63
2023-01-17T22:25:41.989Z,17.13
2023-01-17T22:28:10.347Z,16.17
2023-01-17T22:30:39.444Z,15.52
2023-01-17T22:33:07.469Z,16.13
2023-01-17T22:35:36.197Z,15.10
2023-01-17T22:38:04.365Z,14.50
2023-01-17T22:40:33.935Z,14.50
2023-01-17T22:43:02.584Z,14.10
2023-01-17T22:45:30.819Z,14.38
2023-01-17T22:47:59.412Z,14.85
2023-01-17T22:50:28.063Z,14.75
2023-01-17T22:52:57.231Z,15.00
2023-01-17T22:55:25.689Z,14.65
2023-01-17T22:57:54.377Z,15.10
2023-01-17T23:00:22.971Z,14.98
2023-01-17T23:02:51.752Z,15.38
2023-01-17T23:05:21.199Z,15.02
2023-01-17T23:07:51.827Z,15.75
2023-01-17T23:10:40.468Z,15.57
2023-01-17T23:13:11.954Z,16.50
2023-01-17T23:15:59.372Z,16.58
2023-01-17T23:18:46.292Z,15.32
2023-01-17T23:21:14.933Z,15.88
2023-01-17T23:23:43.655Z,15.30
2023-01-17T23:26:12.213Z,15.02
2023-01-17T23:28:40.887Z,15.35
2023-01-17T23:31:11.649Z,15.52
2023-01-17T23:33:40.220Z,15.60
2023-01-17T23:36:10.217Z,14.98
2023-01-17T23:38:41.943Z,14.93
2023-01-17T23:41:29.390Z,14.82
2023-01-17T23:43:59.611Z,16.05
2023-01-17T23:46:28.046Z,15.70
2023-01-17T23:48:56.728Z,17.20
2023-01-17T23:51:24.849Z,15.73
2023-01-17T23:53:58.847Z,15.50
2023-01-17T23:56:27.475Z,17.00
2023-01-17T23:58:56.079Z,16.13
